Time;durP1;ratioP1;P1;durP2;ratioP2;P2;SDS_P1;SDS_P2;PMS_P1;PMS_P2;Temp;Humidity;BMP_temperature;BMP_pressure;BME280_temperature;BME280_humidity;BME280_pressure;Samples;Min_cycle;Max_cycle;Signal;HPM_P1;HPM_P2
2024/04/24 00:01:20;;;;;;;4.40;2.30;;;;;;;2.56;57.50;101154.16;5396310;26;20537;-71
2024/04/24 00:03:48;;;;;;;4.13;2.30;;;;;;;2.54;57.45;101158.44;5395914;26;20558;-70
2024/04/24 00:06:17;;;;;;;3.03;2.03;;;;;;;2.49;57.15;101149.72;5397070;26;20528;-70
2024/04/24 00:08:46;;;;;;;3.80;2.13;;;;;;;2.47;57.12;101151.41;5405747;26;20468;-70
2024/04/24 00:11:20;;;;;;;3.70;2.20;;;;;;;2.45;57.37;101147.94;5392458;26;20460;-70
2024/04/24 00:13:45;;;;;;;2.93;1.97;;;;;;;2.46;57.12;101154.84;5399486;26;20474;-70
2024/04/24 00:16:14;;;;;;;3.90;2.47;;;;;;;2.43;57.16;101147.06;5401499;26;20550;-70
2024/04/24 00:18:43;;;;;;;3.03;1.87;;;;;;;2.40;57.61;101149.59;5400667;26;20311;-70
2024/04/24 00:21:12;;;;;;;2.23;1.70;;;;;;;2.37;57.56;101148.69;5398051;26;21060;-70
2024/04/24 00:23:41;;;;;;;4.17;2.10;;;;;;;2.26;57.48;101128.69;5404791;26;20616;-70
2024/04/24 00:26:09;;;;;;;2.77;2.27;;;;;;;2.31;57.26;101145.13;5400053;26;20582;-70
2024/04/24 00:28:38;;;;;;;4.03;2.33;;;;;;;2.27;57.45;101146.81;5405489;26;20738;-71
2024/04/24 00:31:06;;;;;;;2.67;2.17;;;;;;;2.24;57.58;101145.84;5391978;26;20461;-70
2024/04/24 00:33:35;;;;;;;2.60;2.10;;;;;;;2.19;57.36;101142.31;5396553;26;20620;-70
2024/04/24 00:36:03;;;;;;;3.77;2.20;;;;;;;2.13;57.43;101136.22;5399407;26;20624;-71
2024/04/24 00:38:32;;;;;;;3.87;1.93;;;;;;;2.10;57.37;101143.03;5400462;26;20471;-70
2024/04/24 00:41:00;;;;;;;3.13;2.10;;;;;;;2.06;57.58;101131.78;5398400;26;20462;-70
2024/04/24 00:43:29;;;;;;;4.17;2.13;;;;;;;2.02;57.31;101130.00;5404493;26;20529;-70
2024/04/24 00:46:01;;;;;;;3.43;2.00;;;;;;;2.00;57.66;101136.84;5396876;26;20546;-70
2024/04/24 00:48:30;;;;;;;3.77;2.00;;;;;;;1.97;57.69;101136.78;5392865;26;20860;-70
2024/04/24 00:51:00;;;;;;;3.90;2.03;;;;;;;1.93;57.99;101141.03;5401721;26;21114;-70
2024/04/24 00:53:26;;;;;;;5.20;2.23;;;;;;;1.90;58.05;101135.81;5399083;26;20535;-70
2024/04/24 00:55:55;;;;;;;4.57;1.93;;;;;;;1.87;57.95;101132.28;5398602;26;20473;-70
2024/04/24 00:58:25;;;;;;;5.17;2.20;;;;;;;1.82;58.11;101132.22;5397091;26;20239;-70
2024/04/24 01:00:54;;;;;;;3.27;1.93;;;;;;;1.81;58.19;101133.03;5403899;26;20624;-70
2024/04/24 01:03:23;;;;;;;2.50;1.90;;;;;;;1.78;58.06;101143.31;5407796;26;20484;-70
2024/04/24 01:05:51;;;;;;;4.93;2.23;;;;;;;1.74;58.26;101131.19;5402142;26;20448;-70
2024/04/24 01:08:20;;;;;;;3.20;1.97;;;;;;;1.72;57.91;101135.44;5386428;26;20592;-70
2024/04/24 01:10:48;;;;;;;3.03;2.07;;;;;;;1.68;57.97;101131.94;5403967;26;20585;-70
2024/04/24 01:13:17;;;;;;;3.80;2.63;;;;;;;1.67;58.39;101129.31;5400336;26;20611;-70
2024/04/24 01:15:46;;;;;;;4.17;2.10;;;;;;;1.61;58.56;101127.50;5397944;26;20512;-70
2024/04/24 01:18:16;;;;;;;2.83;2.03;;;;;;;1.65;58.21;101138.78;5403049;26;20591;-70
2024/04/24 01:20:49;;;;;;;4.40;1.97;;;;;;;1.63;58.44;101135.28;5398161;26;20544;-70
2024/04/24 01:23:30;;;;;;;3.87;2.30;;;;;;;1.60;58.47;101132.66;5396701;26;20532;-70
2024/04/24 01:26:05;;;;;;;4.47;2.10;;;;;;;1.59;58.57;101133.47;5406827;26;20453;-70
2024/04/24 01:28:37;;;;;;;5.77;2.43;;;;;;;1.56;58.75;101134.31;5385982;26;20537;-70
2024/04/24 01:31:06;;;;;;;4.87;2.47;;;;;;;1.56;58.74;101135.97;5399333;26;20530;-70
2024/04/24 01:33:34;;;;;;;5.63;2.43;;;;;;;1.54;58.54;101129.94;5382864;26;20474;-71
2024/04/24 01:36:03;;;;;;;2.50;2.10;;;;;;;1.54;58.77;101135.09;5403692;26;20515;-70
2024/04/24 01:38:31;;;;;;;3.83;2.27;;;;;;;1.51;58.92;101130.75;5407610;26;21040;-70
2024/04/24 01:41:00;;;;;;;4.63;2.10;;;;;;;1.49;58.79;101127.25;5395973;26;20460;-70
2024/04/24 01:43:28;;;;;;;4.43;2.10;;;;;;;1.47;59.12;101128.94;5407252;26;20904;-70
2024/04/24 01:46:00;;;;;;;2.53;2.13;;;;;;;1.46;59.09;101122.03;5402535;26;20638;-70
2024/04/24 01:48:25;;;;;;;4.53;2.57;;;;;;;1.45;59.17;101131.50;5405782;26;20582;-70
2024/04/24 01:50:54;;;;;;;3.70;2.20;;;;;;;1.44;59.24;101124.59;5397598;26;20476;-70
2024/04/24 01:53:22;;;;;;;6.33;2.63;;;;;;;1.44;59.32;101119.41;5403677;26;20246;-70
2024/04/24 01:55:51;;;;;;;7.17;2.77;;;;;;;1.44;59.71;101121.13;5391476;26;20561;-70
2024/04/24 01:58:19;;;;;;;4.77;2.47;;;;;;;1.43;60.17;101120.28;5400918;26;20534;-70
2024/04/24 02:00:48;;;;;;;4.27;2.37;;;;;;;1.43;59.88;101117.69;5398525;26;20463;-70
2024/04/24 02:03:19;;;;;;;4.37;2.30;;;;;;;1.44;59.91;101114.25;5403081;26;20913;-70
2024/04/24 02:05:48;;;;;;;4.60;2.40;;;;;;;1.43;59.67;101117.69;5398993;26;20528;-69
2024/04/24 02:08:16;;;;;;;4.30;2.37;;;;;;;1.44;59.85;101111.69;5402267;26;20616;-70
2024/04/24 02:10:45;;;;;;;4.53;1.93;;;;;;;1.42;59.92;101109.91;5395453;26;21064;-70
2024/04/24 02:13:13;;;;;;;8.13;2.37;;;;;;;1.43;60.13;101107.38;5403642;26;20467;-66
2024/04/24 02:15:42;;;;;;;8.03;2.67;;;;;;;1.44;60.13;101111.69;5391895;26;20463;-67
2024/04/24 02:18:10;;;;;;;5.67;2.47;;;;;;;1.43;59.88;101107.38;5397313;26;20466;-67
2024/04/24 02:20:41;;;;;;;5.60;2.30;;;;;;;1.43;60.32;101106.53;5405408;26;20463;-66
2024/04/24 02:23:13;;;;;;;5.87;2.40;;;;;;;1.39;60.27;101095.28;5397632;26;20534;-66
2024/04/24 02:25:38;;;;;;;3.87;2.17;;;;;;;1.45;60.18;101104.84;5401954;26;20465;-67
2024/04/24 02:28:10;;;;;;;6.00;2.50;;;;;;;1.44;60.24;101093.63;5404191;26;20525;-67
2024/04/24 02:30:39;;;;;;;5.17;2.37;;;;;;;1.45;60.33;101103.13;5395953;26;20327;-67
2024/04/24 02:33:07;;;;;;;4.00;2.20;;;;;;;1.45;60.34;101100.56;5404125;26;20536;-74
2024/04/24 02:35:36;;;;;;;4.93;2.87;;;;;;;1.43;60.52;101094.50;5402593;26;20554;-74
2024/04/24 02:38:09;;;;;;;5.10;2.33;;;;;;;1.46;60.71;101099.72;5393959;26;20475;-74
2024/04/24 02:40:38;;;;;;;4.50;2.30;;;;;;;1.47;60.97;101098.00;5402823;26;20467;-74
2024/04/24 02:43:06;;;;;;;8.10;2.70;;;;;;;1.49;61.13;101101.47;5399527;26;20527;-74
2024/04/24 02:45:35;;;;;;;4.87;2.90;;;;;;;1.51;61.24;101104.09;5399418;26;20611;-74
2024/04/24 02:48:01;;;;;;;4.20;2.50;;;;;;;1.52;61.32;101098.97;5405032;26;20592;-72
2024/04/24 02:50:29;;;;;;;4.53;2.37;;;;;;;1.52;61.57;101105.84;5406537;26;20969;-73
2024/04/24 02:52:58;;;;;;;3.43;2.10;;;;;;;1.55;61.40;101098.16;5394379;26;20229;-74
2024/04/24 02:55:29;;;;;;;3.10;2.10;;;;;;;1.54;61.41;101101.59;5406953;26;20515;-74
2024/04/24 02:57:58;;;;;;;3.53;2.70;;;;;;;1.54;61.52;101099.88;5393526;26;20527;-74
2024/04/24 03:00:26;;;;;;;3.90;2.17;;;;;;;1.55;61.36;101111.03;5402369;26;20540;-73
2024/04/24 03:02:52;;;;;;;6.03;2.83;;;;;;;1.56;61.27;101102.47;5401573;26;20608;-74
2024/04/24 03:05:21;;;;;;;3.20;2.63;;;;;;;1.56;61.49;101098.19;5399973;26;20481;-74
2024/04/24 03:07:49;;;;;;;3.83;2.23;;;;;;;1.54;61.52;101088.69;5397201;26;20358;-73
2024/04/24 03:10:18;;;;;;;4.47;2.10;;;;;;;1.58;61.48;101090.47;5399864;26;20924;-74
2024/04/24 03:12:49;;;;;;;4.37;2.40;;;;;;;1.58;61.78;101085.31;5405166;26;20861;-74
2024/04/24 03:15:17;;;;;;;3.40;2.20;;;;;;;1.60;61.78;101094.81;5400431;26;20480;-74
2024/04/24 03:17:46;;;;;;;5.30;2.80;;;;;;;1.61;61.94;101096.56;5396204;26;20572;-74
2024/04/24 03:20:14;;;;;;;5.13;2.30;;;;;;;1.63;61.82;101088.84;5399149;26;20995;-74
2024/04/24 03:22:43;;;;;;;3.30;2.20;;;;;;;1.63;61.82;101088.84;5399640;26;20551;-67
2024/04/24 03:25:12;;;;;;;3.57;1.97;;;;;;;1.64;61.64;101098.31;5389177;26;21101;-67
2024/04/24 03:27:40;;;;;;;3.93;2.17;;;;;;;1.62;61.85;101093.16;5396977;26;20544;-67
2024/04/24 03:30:12;;;;;;;2.40;1.90;;;;;;;1.62;61.65;101087.13;5402377;26;20478;-67
2024/04/24 03:32:40;;;;;;;3.83;2.33;;;;;;;1.62;61.54;101092.28;5402645;26;20468;-68
2024/04/24 03:35:10;;;;;;;2.53;2.30;;;;;;;1.43;61.62;101060.13;5397728;26;20515;-67
2024/04/24 03:37:39;;;;;;;5.70;2.20;;;;;;;1.60;61.35;101089.66;5400165;26;20466;-67
2024/04/24 03:40:08;;;;;;;5.03;2.43;;;;;;;1.61;61.71;101100.84;5384841;26;20474;-68
2024/04/24 03:42:37;;;;;;;4.47;2.60;;;;;;;1.62;61.88;101087.13;5402481;26;20479;-68
2024/04/24 03:45:06;;;;;;;5.07;2.63;;;;;;;1.63;62.15;101094.00;5389642;26;20464;-67
2024/04/24 03:47:37;;;;;;;4.50;2.80;;;;;;;1.65;62.28;101100.94;5404925;26;20471;-67
2024/04/24 03:50:06;;;;;;;6.07;2.47;;;;;;;1.66;62.42;101099.22;5396059;26;20539;-67
2024/04/24 03:52:35;;;;;;;5.87;2.63;;;;;;;1.67;62.45;101100.97;5399251;26;20878;-68
2024/04/24 03:55:03;;;;;;;6.07;2.40;;;;;;;1.68;62.42;101100.13;5394369;26;20520;-68
2024/04/24 03:57:30;;;;;;;3.63;2.20;;;;;;;1.68;62.29;101092.41;5402646;26;20510;-67
2024/04/24 03:59:59;;;;;;;4.47;2.27;;;;;;;1.70;62.32;101104.50;5397781;26;20477;-67
2024/04/24 04:02:28;;;;;;;7.80;2.63;;;;;;;1.70;62.46;101098.44;5397975;26;20302;-67
2024/04/24 04:04:59;;;;;;;4.90;2.50;;;;;;;1.73;62.74;101095.91;5400919;26;20485;-67
2024/04/24 04:07:27;;;;;;;6.67;2.57;;;;;;;1.75;62.69;101099.41;5391402;26;20470;-67
2024/04/24 04:09:56;;;;;;;4.23;2.53;;;;;;;1.67;62.99;101080.31;5399257;26;20513;-67
2024/04/24 04:12:24;;;;;;;5.97;2.60;;;;;;;1.79;63.10;101090.88;5403751;26;20545;-67
2024/04/24 04:14:53;;;;;;;4.83;2.67;;;;;;;1.82;62.70;101090.06;5398619;26;20477;-68
2024/04/24 04:17:21;;;;;;;5.30;2.60;;;;;;;1.85;62.82;101092.72;5396439;26;20614;-67
2024/04/24 04:19:50;;;;;;;3.60;2.13;;;;;;;1.87;62.80;101091.88;5401938;26;20475;-68
2024/04/24 04:22:21;;;;;;;4.67;2.43;;;;;;;1.91;63.13;101085.06;5390233;26;21055;-67
2024/04/24 04:24:49;;;;;;;4.23;2.43;;;;;;;1.95;63.39;101093.72;5401921;26;20528;-68
2024/04/24 04:27:18;;;;;;;3.43;2.33;;;;;;;1.99;63.15;101100.66;5391222;26;21069;-67
2024/04/24 04:29:46;;;;;;;8.57;4.53;;;;;;;2.04;63.54;101096.47;5402530;26;20529;-67
2024/04/24 04:32:15;;;;;;;9.57;3.70;;;;;;;2.07;63.70;101093.94;5403954;26;20605;-66
2024/04/24 04:34:44;;;;;;;5.27;2.50;;;;;;;2.14;63.70;101098.38;5398311;26;21137;-66
2024/04/24 04:37:13;;;;;;;6.23;2.60;;;;;;;2.18;63.70;101095.00;5393162;26;20469;-66
2024/04/24 04:39:44;;;;;;;4.27;2.90;;;;;;;2.22;63.93;101095.94;5403520;26;20522;-66
2024/04/24 04:42:13;;;;;;;4.53;2.90;;;;;;;2.26;63.92;101102.88;5401870;26;20534;-74
2024/04/24 04:44:41;;;;;;;5.30;2.60;;;;;;;2.30;64.02;101102.97;5393913;26;20601;-74
2024/04/24 04:47:10;;;;;;;5.83;2.97;;;;;;;2.34;64.20;101097.00;5407710;26;20549;-74
2024/04/24 04:49:38;;;;;;;6.57;3.00;;;;;;;2.38;64.45;101090.16;5398464;26;21058;-73
2024/04/24 04:52:07;;;;;;;5.87;2.70;;;;;;;2.44;64.51;101091.97;5401149;26;20536;-70
2024/04/24 04:54:36;;;;;;;5.67;2.53;;;;;;;2.48;64.58;101089.47;5391265;26;20576;-70
2024/04/24 04:57:07;;;;;;;6.10;3.03;;;;;;;2.53;64.51;101089.50;5399904;26;20614;-71
2024/04/24 04:59:35;;;;;;;6.03;3.33;;;;;;;2.54;64.83;101083.53;5399179;26;21118;-71
2024/04/24 05:02:04;;;;;;;6.57;2.83;;;;;;;2.62;64.48;101093.97;5398890;26;20481;-71
2024/04/24 05:04:32;;;;;;;3.97;2.57;;;;;;;2.66;64.17;101088.88;5394958;26;21078;-70
2024/04/24 05:07:01;;;;;;;4.87;2.70;;;;;;;2.69;64.11;101090.63;5401287;26;20483;-71
2024/04/24 05:09:32;;;;;;;6.57;3.10;;;;;;;2.73;64.54;101093.28;5395207;26;20530;-71
2024/04/24 05:12:00;;;;;;;3.30;2.57;;;;;;;2.77;64.27;101092.47;5402482;26;20819;-71
2024/04/24 05:14:31;;;;;;;5.83;2.90;;;;;;;2.79;64.65;101089.94;5403778;26;20517;-71
2024/04/24 05:17:00;;;;;;;4.40;2.57;;;;;;;2.87;64.48;101097.75;5399995;26;20475;-71
2024/04/24 05:19:29;;;;;;;7.07;3.20;;;;;;;2.90;64.82;101092.63;5395154;26;20597;-71
2024/04/24 05:21:57;;;;;;;4.87;2.60;;;;;;;2.93;64.02;101096.16;5401564;26;20610;-70
2024/04/24 05:24:26;;;;;;;7.93;2.93;;;;;;;2.98;64.71;101093.63;5391542;26;20523;-71
2024/04/24 05:29:41;;;;;;;4.33;2.87;;;;;;;3.05;64.22;101087.69;5383423;26;20552;-71
2024/04/24 05:32:10;;;;;;;4.43;2.93;;;;;;;3.08;64.16;101092.91;5396862;26;20955;-71
2024/04/24 05:34:38;;;;;;;5.33;2.60;;;;;;;3.12;64.32;101097.25;5365146;26;20840;-71
2024/04/24 05:37:07;;;;;;;5.97;2.73;;;;;;;3.16;64.38;101090.44;5408681;26;20580;-71
2024/04/24 05:39:36;;;;;;;6.33;2.60;;;;;;;3.19;64.30;101086.16;5416053;26;20463;-71
2024/04/24 05:42:04;;;;;;;3.77;2.53;;;;;;;3.22;64.27;101093.94;5414469;26;20525;-71
2024/04/24 05:44:34;;;;;;;5.73;2.87;;;;;;;3.25;64.47;101093.97;5411417;26;20470;-70
2024/04/24 05:47:05;;;;;;;4.97;2.50;;;;;;;3.26;64.71;101093.13;5411963;26;20818;-71
2024/04/24 05:49:34;;;;;;;5.03;2.70;;;;;;;3.34;64.22;101092.38;5410989;26;20552;-72
2024/04/24 05:52:03;;;;;;;7.43;2.83;;;;;;;3.36;64.06;101096.72;5407417;26;20462;-67
2024/04/24 05:54:31;;;;;;;7.07;4.43;;;;;;;3.40;64.21;101095.88;5412299;26;20536;-67
2024/04/24 05:57:00;;;;;;;7.13;2.87;;;;;;;3.42;64.42;101088.16;5415635;26;20945;-67
2024/04/24 05:59:26;;;;;;;7.00;2.83;;;;;;;3.51;64.60;101093.44;5413190;26;21104;-67
2024/04/24 06:01:54;;;;;;;6.67;2.93;;;;;;;3.55;64.60;101099.50;5410854;26;20474;-66
2024/04/24 06:04:25;;;;;;;4.97;2.80;;;;;;;3.59;64.21;101093.53;5413545;26;20245;-66
2024/04/24 06:06:54;;;;;;;5.37;2.73;;;;;;;3.63;64.45;101085.78;5417274;26;20599;-66
2024/04/24 06:09:22;;;;;;;6.27;3.17;;;;;;;3.67;64.77;101095.34;5417332;26;20534;-66
2024/04/24 06:11:51;;;;;;;5.17;3.53;;;;;;;3.72;65.18;101087.59;5416834;26;20523;-66
2024/04/24 06:14:19;;;;;;;6.17;3.10;;;;;;;3.77;64.96;101096.28;5417923;26;20565;-66
2024/04/24 06:16:48;;;;;;;6.43;3.47;;;;;;;3.81;65.05;101090.31;5415283;26;20541;-66
2024/04/24 06:19:17;;;;;;;6.00;2.87;;;;;;;3.86;65.07;101092.94;5417650;26;20518;-66
2024/04/24 06:21:48;;;;;;;6.60;3.20;;;;;;;3.90;64.64;101093.00;5417164;26;20458;-66
2024/04/24 06:24:16;;;;;;;4.63;2.83;;;;;;;3.95;64.42;101103.38;5416285;26;21063;-66
2024/04/24 06:26:45;;;;;;;5.37;3.10;;;;;;;3.97;64.68;101099.09;5414338;26;20517;-66
2024/04/24 06:29:14;;;;;;;9.47;3.00;;;;;;;4.00;64.84;101099.09;5415228;26;20585;-67
2024/04/24 06:31:42;;;;;;;5.20;2.80;;;;;;;4.04;64.83;101100.00;5420915;26;20577;-66
2024/04/24 06:34:11;;;;;;;5.07;2.90;;;;;;;4.08;65.17;101101.78;5418852;26;20328;-66
2024/04/24 06:36:39;;;;;;;6.60;3.47;;;;;;;4.12;65.31;101091.47;5414568;26;20587;-66
2024/04/24 06:39:11;;;;;;;4.47;2.80;;;;;;;4.17;65.34;101097.53;5419133;26;20475;-66
2024/04/24 06:41:39;;;;;;;6.10;3.17;;;;;;;4.21;64.98;101098.47;5412862;26;20861;-66
2024/04/24 06:44:08;;;;;;;4.57;2.57;;;;;;;4.26;64.59;101095.88;5416604;26;20610;-66
2024/04/24 06:46:36;;;;;;;5.03;3.13;;;;;;;4.30;65.16;101100.25;5413843;26;20473;-66
2024/04/24 06:49:05;;;;;;;4.73;3.50;;;;;;;4.35;64.99;101101.13;5416838;26;20550;-66
2024/04/24 06:51:33;;;;;;;7.40;3.27;;;;;;;4.41;64.68;101096.03;5414381;26;20471;-66
2024/04/24 06:54:03;;;;;;;6.70;3.20;;;;;;;4.47;64.58;101097.81;5423873;26;21237;-66
2024/04/24 06:56:34;;;;;;;4.83;2.93;;;;;;;4.51;65.19;101091.78;5416288;26;21149;-67
2024/04/24 06:59:02;;;;;;;5.53;2.87;;;;;;;4.54;64.63;101090.06;5424417;26;20606;-66
2024/04/24 07:01:31;;;;;;;3.90;2.40;;;;;;;4.44;64.87;101064.97;5417750;26;20606;-66
2024/04/24 07:03:59;;;;;;;4.33;2.73;;;;;;;4.64;64.77;101093.59;5423118;26;20605;-78
2024/04/24 07:06:28;;;;;;;4.43;2.70;;;;;;;4.70;64.54;101096.22;5419144;26;20220;-78
2024/04/24 07:08:56;;;;;;;4.63;2.73;;;;;;;4.77;64.36;101094.53;5424735;26;20331;-78
2024/04/24 07:11:25;;;;;;;4.70;2.23;;;;;;;4.83;64.21;101089.38;5424268;26;20288;-78
2024/04/24 07:13:56;;;;;;;2.80;2.13;;;;;;;4.90;64.14;101092.91;5427801;26;20288;-79
2024/04/24 07:16:25;;;;;;;2.50;2.30;;;;;;;4.96;64.26;101087.78;5426506;26;21321;-78
2024/04/24 07:18:53;;;;;;;3.20;2.20;;;;;;;5.00;64.40;101087.78;5418959;26;20251;-77
2024/04/24 07:21:22;;;;;;;4.80;2.10;;;;;;;5.07;64.09;101086.97;5431754;26;20377;-78
2024/04/24 07:23:50;;;;;;;4.13;2.50;;;;;;;5.15;63.99;101086.13;5428307;26;20351;-77
2024/04/24 07:26:20;;;;;;;3.90;2.40;;;;;;;5.15;63.56;101070.56;5426650;26;20324;-78
2024/04/24 07:28:49;;;;;;;5.77;2.47;;;;;;;5.29;63.83;101084.50;5422096;26;20688;-78
2024/04/24 07:31:20;;;;;;;3.37;2.27;;;;;;;5.38;63.33;101081.06;5424837;26;20325;-78
2024/04/24 07:33:48;;;;;;;4.27;2.17;;;;;;;5.46;63.23;101080.22;5418232;26;20237;-78
2024/04/24 07:36:17;;;;;;;5.20;2.57;;;;;;;5.53;62.78;101084.56;5421375;26;20362;-78
2024/04/24 07:38:46;;;;;;;2.90;2.30;;;;;;;5.61;62.53;101081.13;5417673;26;20289;-78
2024/04/24 07:41:15;;;;;;;4.13;2.37;;;;;;;5.68;62.25;101083.72;5424955;26;20288;-78
2024/04/24 07:43:43;;;;;;;3.57;2.00;;;;;;;5.78;62.11;101075.97;5416579;26;20768;-78
2024/04/24 07:46:12;;;;;;;3.93;2.60;;;;;;;5.85;61.76;101075.97;5416193;26;20320;-78
2024/04/24 07:48:43;;;;;;;2.57;1.10;;;;;;;5.93;62.02;101079.44;5426014;26;20230;-78
2024/04/24 07:51:12;;;;;;;2.60;1.77;;;;;;;6.01;61.31;101070.81;5419764;26;20295;-78
2024/04/24 07:53:40;;;;;;;2.93;2.13;;;;;;;6.09;60.80;101074.28;5418998;26;20234;-77
2024/04/24 07:56:09;;;;;;;3.97;2.17;;;;;;;6.09;60.81;101053.50;5424132;26;20230;-78
2024/04/24 07:58:37;;;;;;;2.53;2.07;;;;;;;6.26;60.50;101069.97;5420025;26;20303;-78
2024/04/24 08:01:07;;;;;;;3.70;2.03;;;;;;;6.38;60.11;101075.16;5418684;26;20347;-78
2024/04/24 08:03:35;;;;;;;2.90;2.03;;;;;;;6.48;60.60;101069.94;5426386;26;20823;-77
2024/04/24 08:06:07;;;;;;;3.03;1.80;;;;;;;6.60;60.30;101077.75;5420332;26;20292;-78
2024/04/24 08:08:39;;;;;;;3.07;2.13;;;;;;;6.70;60.21;101074.22;5416909;26;20235;-77
2024/04/24 08:11:08;;;;;;;7.57;5.43;;;;;;;6.81;59.84;101071.63;5426953;26;20706;-78
2024/04/24 08:13:36;;;;;;;11.33;9.30;;;;;;;6.91;59.33;101067.25;5415666;26;20289;-68
2024/04/24 08:16:05;;;;;;;61.03;45.37;;;;;;;7.01;59.25;101072.44;5418296;26;20308;-68
2024/04/24 08:18:33;;;;;;;4.77;2.87;;;;;;;7.11;58.56;101068.03;5414337;26;20286;-68
2024/04/24 08:21:02;;;;;;;6.33;4.13;;;;;;;7.16;58.46;101053.28;5414168;26;20363;-68
2024/04/24 08:23:33;;;;;;;3.47;2.40;;;;;;;7.29;57.82;101062.78;5414162;26;20630;-74
2024/04/24 08:26:02;;;;;;;5.00;4.30;;;;;;;7.39;57.99;101065.38;5418104;26;20226;-78
2024/04/24 08:28:31;;;;;;;36.70;28.63;;;;;;;7.46;58.07;101061.88;5418299;26;20230;-75
2024/04/24 08:31:02;;;;;;;9.90;8.57;;;;;;;7.54;57.56;101052.28;5418758;26;20706;-77
2024/04/24 08:33:31;;;;;;;33.63;23.73;;;;;;;7.63;57.17;101056.56;5410708;26;20365;-78
2024/04/24 08:36:02;;;;;;;38.07;31.63;;;;;;;7.71;56.54;101053.06;5406875;26;20806;-75
2024/04/24 08:38:34;;;;;;;17.43;11.77;;;;;;;7.78;56.47;101052.13;5396277;26;20819;-77
2024/04/24 08:41:06;;;;;;;35.93;25.50;;;;;;;7.85;56.25;101063.38;5405498;26;20271;-83
2024/04/24 08:43:36;;;;;;;9.27;6.60;;;;;;;7.86;56.02;101046.00;5395294;26;20269;-76
2024/04/24 08:46:07;;;;;;;21.80;17.30;;;;;;;8.01;55.70;101056.31;5402018;26;20254;-78
2024/04/24 08:48:39;;;;;;;32.80;23.00;;;;;;;8.09;55.54;101053.66;5415824;26;20356;-76
2024/04/24 08:51:08;;;;;;;99.90;72.67;;;;;;;8.18;55.05;101053.56;5413564;26;20829;-76
2024/04/24 08:53:50;;;;;;;12.27;10.17;;;;;;;8.26;54.57;101048.31;5422095;26;20251;-75
2024/04/24 08:56:22;;;;;;;38.27;29.17;;;;;;;8.35;54.42;101050.81;5416404;26;20242;-77
2024/04/24 08:58:53;;;;;;;117.83;86.13;;;;;;;8.46;53.71;101048.97;5422674;26;20372;-76
2024/04/24 09:01:27;;;;;;;114.93;82.53;;;;;;;8.51;52.99;101046.34;5417031;26;20256;-74
2024/04/24 09:04:05;;;;;;;19.67;15.40;;;;;;;8.56;52.77;101040.19;5414289;26;20243;-73
2024/04/24 09:06:35;;;;;;;20.97;14.40;;;;;;;8.64;52.24;101040.09;5417433;26;20336;-76
2024/04/24 09:09:08;;;;;;;12.30;10.00;;;;;;;8.68;51.45;101040.06;5415566;26;20270;-75
2024/04/24 09:11:36;;;;;;;54.40;40.03;;;;;;;8.74;51.18;101043.50;5410082;26;20235;-75
2024/04/24 09:14:06;;;;;;;64.60;46.50;;;;;;;8.78;51.32;101048.63;5418246;26;20271;-73
2024/04/24 09:16:38;;;;;;;37.63;27.17;;;;;;;8.84;50.71;101045.09;5415828;26;20232;-72
2024/04/24 09:19:07;;;;;;;53.57;42.07;;;;;;;8.89;50.35;101048.53;5413344;26;20724;-72
2024/04/24 09:21:35;;;;;;;18.60;15.20;;;;;;;8.94;50.06;101038.91;5416003;26;20323;-75
2024/04/24 09:24:07;;;;;;;97.80;72.50;;;;;;;8.99;49.78;101039.72;5415960;26;20278;-71
2024/04/24 09:26:38;;;;;;;29.13;20.80;;;;;;;9.04;49.71;101043.13;5415990;26;20275;-70
2024/04/24 09:29:06;;;;;;;76.97;54.00;;;;;;;9.09;49.29;101043.06;5416783;26;20354;-72
2024/04/24 09:31:35;;;;;;;73.63;48.17;;;;;;;9.12;49.23;101043.03;5416072;26;20757;-70
2024/04/24 09:34:04;;;;;;;4.90;4.43;;;;;;;9.13;48.85;101032.59;5415837;26;20337;-66
2024/04/24 09:36:37;;;;;;;75.57;44.80;;;;;;;9.19;49.36;101043.81;5415933;26;20287;-68
2024/04/24 09:39:09;;;;;;;25.90;17.00;;;;;;;9.21;48.62;101040.31;5413912;26;20232;-66
2024/04/24 09:41:38;;;;;;;49.43;33.17;;;;;;;9.23;48.92;101033.31;5415595;26;20228;-68
2024/04/24 09:44:13;;;;;;;37.97;25.07;;;;;;;9.30;48.88;101042.84;5415459;26;20264;-68
2024/04/24 09:46:48;;;;;;;43.43;27.17;;;;;;;9.33;48.90;101036.69;5415350;26;20570;-69
2024/04/24 09:49:16;;;;;;;10.07;6.43;;;;;;;9.35;48.18;101037.56;5437377;26;20282;-70
2024/04/24 09:51:45;;;;;;;36.30;22.00;;;;;;;9.35;47.94;101037.56;5454871;26;20231;-69
2024/04/24 09:54:16;;;;;;;42.80;25.23;;;;;;;9.32;48.04;101034.97;5454924;26;20282;-68
2024/04/24 09:56:46;;;;;;;15.80;10.17;;;;;;;9.30;47.69;101031.53;5454952;26;20364;-68
2024/04/24 09:59:16;;;;;;;4.07;2.70;;;;;;;9.29;47.49;101029.81;5454931;26;20219;-68
2024/04/24 10:01:48;;;;;;;2.53;1.67;;;;;;;9.27;47.30;101036.78;5454948;26;20257;-68
2024/04/24 10:04:17;;;;;;;2.50;1.97;;;;;;;9.26;47.00;101032.41;5454939;26;20570;-69
2024/04/24 10:06:48;;;;;;;2.80;2.00;;;;;;;9.23;47.23;101035.06;5455010;26;20218;-69
2024/04/24 10:09:24;;;;;;;64.10;32.00;;;;;;;9.20;47.69;101027.28;5454586;26;20338;-69
2024/04/24 10:11:58;;;;;;;7.37;3.40;;;;;;;9.12;47.33;101020.41;5454718;26;20696;-70
2024/04/24 10:14:27;;;;;;;9.17;5.10;;;;;;;9.10;47.35;101032.63;5453997;26;20222;-70
2024/04/24 10:16:59;;;;;;;13.77;8.07;;;;;;;9.06;47.26;101030.06;5454862;26;20350;-70
2024/04/24 10:19:29;;;;;;;21.20;10.47;;;;;;;9.00;47.46;101030.16;5452275;26;20719;-70
2024/04/24 10:21:58;;;;;;;3.50;2.37;;;;;;;8.96;47.15;101033.66;5452243;26;20280;-70
2024/04/24 10:24:31;;;;;;;2.37;1.60;;;;;;;8.91;46.81;101031.13;5450675;26;20308;-70
2024/04/24 10:27:00;;;;;;;3.40;1.70;;;;;;;8.86;46.90;101038.13;5454626;26;20228;-69
2024/04/24 10:29:30;;;;;;;2.00;1.80;;;;;;;8.80;46.48;101038.19;5448626;26;20747;-69
2024/04/24 10:32:03;;;;;;;94.63;35.53;;;;;;;8.75;46.56;101032.16;5454480;26;20258;-72
2024/04/24 10:34:32;;;;;;;83.23;42.10;;;;;;;8.68;46.64;101042.66;5454145;26;20238;-70
2024/04/24 10:37:01;;;;;;;14.53;7.40;;;;;;;8.68;46.94;101039.19;5454322;26;20308;-69
2024/04/24 10:39:42;;;;;;;7.33;5.50;;;;;;;8.66;47.01;101041.81;5451660;26;20223;-70
2024/04/24 10:42:10;;;;;;;10.73;9.60;;;;;;;8.66;47.00;101041.81;5454185;26;20278;-69
2024/04/24 10:44:40;;;;;;;8.60;6.43;;;;;;;8.66;47.36;101028.78;5454094;26;20727;-68
2024/04/24 10:47:09;;;;;;;24.57;17.93;;;;;;;8.62;47.21;101040.13;5453005;26;20281;-71
2024/04/24 10:49:37;;;;;;;13.00;9.17;;;;;;;8.62;47.37;101029.69;5454129;26;20763;-72
2024/04/24 10:52:07;;;;;;;26.03;19.93;;;;;;;8.61;47.41;101037.53;5454367;26;20344;-71
2024/04/24 10:54:43;;;;;;;68.50;49.53;;;;;;;8.59;47.59;101039.28;5454104;26;20261;-72
2024/04/24 10:57:11;;;;;;;5.93;4.20;;;;;;;8.60;47.65;101036.66;5452717;26;20242;-72
2024/04/24 10:59:40;;;;;;;4.30;3.67;;;;;;;8.59;47.52;101029.72;5453283;26;20330;-71
2024/04/24 11:02:10;;;;;;;29.03;21.20;;;;;;;8.63;47.66;101034.03;5453075;26;20257;-72
2024/04/24 11:04:39;;;;;;;8.77;5.80;;;;;;;8.64;47.58;101035.75;5453842;26;20234;-70
2024/04/24 11:07:08;;;;;;;30.47;26.53;;;;;;;8.66;47.08;101031.38;5453676;26;20820;-71
2024/04/24 11:09:39;;;;;;;44.00;33.37;;;;;;;8.69;47.62;101033.94;5448280;26;20262;-73
2024/04/24 11:12:11;;;;;;;9.60;2.83;;;;;;;8.72;47.43;101029.59;5453886;26;20743;-70
2024/04/24 11:14:42;;;;;;;26.00;15.67;;;;;;;8.76;47.48;101024.34;5447918;26;20300;-70
2024/04/24 11:17:11;;;;;;;33.60;16.60;;;;;;;8.80;47.29;101032.97;5453644;26;20277;-71
2024/04/24 11:19:40;;;;;;;54.80;30.57;;;;;;;8.82;47.37;101023.41;5451967;26;20242;-72
2024/04/24 11:22:08;;;;;;;47.00;30.83;;;;;;;8.84;47.37;101024.22;5450333;26;20318;-75
2024/04/24 11:24:40;;;;;;;13.33;6.33;;;;;;;8.84;47.48;101024.22;5453828;26;20230;-74
2024/04/24 11:27:08;;;;;;;13.60;7.27;;;;;;;8.88;47.71;101025.94;5453685;26;20278;-76
2024/04/24 11:29:37;;;;;;;5.63;3.40;;;;;;;8.90;47.40;101018.94;5453655;26;20227;-75
2024/04/24 11:32:07;;;;;;;2.93;2.30;;;;;;;8.90;47.34;101024.16;5453686;26;20227;-75
2024/04/24 11:34:36;;;;;;;10.03;6.33;;;;;;;8.91;47.38;101023.28;5453553;26;20286;-75
2024/04/24 11:37:04;;;;;;;19.37;11.13;;;;;;;8.91;46.84;101020.69;5447216;26;20676;-77
2024/04/24 11:39:33;;;;;;;3.70;2.17;;;;;;;8.90;46.54;101017.22;5453553;26;20270;-74
2024/04/24 11:42:04;;;;;;;8.93;6.80;;;;;;;8.90;46.91;101019.81;5453617;26;20343;-67